sensor_id;sensor_type;location;lat;lon;timestamp;P1;durP1;ratioP1;P2;durP2;ratioP2
27706;SDS011;36332;51.384;0.040;2023-11-21T00:00:08;14.15;;;7.40;;
27706;SDS011;36332;51.384;0.040;2023-11-21T00:02:40;10.27;;;7.50;;
27706;SDS011;36332;51.384;0.040;2023-11-21T00:05:08;9.40;;;7.43;;
27706;SDS011;36332;51.384;0.040;2023-11-21T00:07:41;14.23;;;7.78;;
27706;SDS011;36332;51.384;0.040;2023-11-21T00:10:10;9.20;;;6.80;;
27706;SDS011;36332;51.384;0.040;2023-11-21T00:12:41;12.32;;;7.00;;
27706;SDS011;36332;51.384;0.040;2023-11-21T00:15:09;12.80;;;7.53;;
27706;SDS011;36332;51.384;0.040;2023-11-21T00:17:40;12.15;;;7.32;;
27706;SDS011;36332;51.384;0.040;2023-11-21T00:20:08;11.70;;;7.20;;
27706;SDS011;36332;51.384;0.040;2023-11-21T00:22:39;12.23;;;7.40;;
27706;SDS011;36332;51.384;0.040;2023-11-21T00:25:07;20.23;;;8.02;;
27706;SDS011;36332;51.384;0.040;2023-11-21T00:27:36;13.20;;;7.35;;
27706;SDS011;36332;51.384;0.040;2023-11-21T00:30:04;13.38;;;8.52;;
27706;SDS011;36332;51.384;0.040;2023-11-21T00:32:34;9.80;;;7.10;;
27706;SDS011;36332;51.384;0.040;2023-11-21T00:35:03;11.82;;;7.25;;
27706;SDS011;36332;51.384;0.040;2023-11-21T00:37:31;19.40;;;7.47;;
27706;SDS011;36332;51.384;0.040;2023-11-21T00:39:59;11.50;;;7.68;;
27706;SDS011;36332;51.384;0.040;2023-11-21T00:42:29;13.02;;;8.85;;
27706;SDS011;36332;51.384;0.040;2023-11-21T00:44:57;11.27;;;8.05;;
27706;SDS011;36332;51.384;0.040;2023-11-21T00:47:25;12.93;;;7.65;;
27706;SDS011;36332;51.384;0.040;2023-11-21T00:49:53;10.57;;;7.55;;
27706;SDS011;36332;51.384;0.040;2023-11-21T00:52:21;10.40;;;7.70;;
27706;SDS011;36332;51.384;0.040;2023-11-21T00:54:48;13.05;;;9.48;;
27706;SDS011;36332;51.384;0.040;2023-11-21T00:57:16;13.52;;;9.20;;
27706;SDS011;36332;51.384;0.040;2023-11-21T00:59:43;12.52;;;8.68;;
27706;SDS011;36332;51.384;0.040;2023-11-21T01:02:11;11.75;;;8.00;;
27706;SDS011;36332;51.384;0.040;2023-11-21T01:04:39;16.92;;;9.15;;
27706;SDS011;36332;51.384;0.040;2023-11-21T01:07:07;12.57;;;9.32;;
27706;SDS011;36332;51.384;0.040;2023-11-21T01:09:35;12.40;;;9.27;;
27706;SDS011;36332;51.384;0.040;2023-11-21T01:12:03;13.27;;;9.20;;
27706;SDS011;36332;51.384;0.040;2023-11-21T01:14:31;11.70;;;9.10;;
27706;SDS011;36332;51.384;0.040;2023-11-21T01:17:00;14.80;;;9.35;;
27706;SDS011;36332;51.384;0.040;2023-11-21T01:19:27;13.70;;;9.65;;
27706;SDS011;36332;51.384;0.040;2023-11-21T01:21:56;12.25;;;8.98;;
27706;SDS011;36332;51.384;0.040;2023-11-21T01:24:25;20.27;;;10.90;;
27706;SDS011;36332;51.384;0.040;2023-11-21T01:26:52;15.13;;;10.05;;
27706;SDS011;36332;51.384;0.040;2023-11-21T01:29:20;14.57;;;9.82;;
27706;SDS011;36332;51.384;0.040;2023-11-21T01:31:48;13.23;;;9.43;;
27706;SDS011;36332;51.384;0.040;2023-11-21T01:34:16;13.02;;;9.77;;
27706;SDS011;36332;51.384;0.040;2023-11-21T01:36:45;22.00;;;12.55;;
27706;SDS011;36332;51.384;0.040;2023-11-21T01:39:13;15.25;;;10.63;;
27706;SDS011;36332;51.384;0.040;2023-11-21T01:41:42;15.95;;;10.60;;
27706;SDS011;36332;51.384;0.040;2023-11-21T01:44:11;14.02;;;10.02;;
27706;SDS011;36332;51.384;0.040;2023-11-21T01:46:40;16.17;;;10.88;;
27706;SDS011;36332;51.384;0.040;2023-11-21T01:49:09;12.98;;;10.27;;
27706;SDS011;36332;51.384;0.040;2023-11-21T01:51:41;11.80;;;9.50;;
27706;SDS011;36332;51.384;0.040;2023-11-21T01:54:13;12.50;;;9.25;;
27706;SDS011;36332;51.384;0.040;2023-11-21T01:56:47;11.38;;;8.35;;
27706;SDS011;36332;51.384;0.040;2023-11-21T01:59:17;10.77;;;8.07;;
27706;SDS011;36332;51.384;0.040;2023-11-21T02:01:47;10.60;;;7.28;;
27706;SDS011;36332;51.384;0.040;2023-11-21T02:04:15;8.07;;;6.72;;
27706;SDS011;36332;51.384;0.040;2023-11-21T02:06:43;10.05;;;6.50;;
27706;SDS011;36332;51.384;0.040;2023-11-21T02:09:11;8.65;;;6.32;;
27706;SDS011;36332;51.384;0.040;2023-11-21T02:11:42;8.15;;;5.80;;
27706;SDS011;36332;51.384;0.040;2023-11-21T02:14:11;8.93;;;5.05;;
27706;SDS011;36332;51.384;0.040;2023-11-21T02:16:40;6.18;;;5.18;;
27706;SDS011;36332;51.384;0.040;2023-11-21T02:19:08;4.93;;;3.75;;
27706;SDS011;36332;51.384;0.040;2023-11-21T02:21:41;5.78;;;3.38;;
27706;SDS011;36332;51.384;0.040;2023-11-21T02:24:10;6.38;;;4.15;;
27706;SDS011;36332;51.384;0.040;2023-11-21T02:26:38;3.83;;;2.92;;
27706;SDS011;36332;51.384;0.040;2023-11-21T02:29:06;3.78;;;3.00;;
27706;SDS011;36332;51.384;0.040;2023-11-21T02:31:37;5.97;;;3.17;;
27706;SDS011;36332;51.384;0.040;2023-11-21T02:34:15;3.30;;;2.58;;
27706;SDS011;36332;51.384;0.040;2023-11-21T02:36:44;4.28;;;2.45;;
27706;SDS011;36332;51.384;0.040;2023-11-21T02:39:11;4.30;;;2.60;;
27706;SDS011;36332;51.384;0.040;2023-11-21T02:41:40;2.50;;;2.10;;
27706;SDS011;36332;51.384;0.040;2023-11-21T02:44:08;4.90;;;2.53;;
27706;SDS011;36332;51.384;0.040;2023-11-21T02:46:36;2.65;;;2.42;;
27706;SDS011;36332;51.384;0.040;2023-11-21T02:49:06;7.75;;;3.45;;
27706;SDS011;36332;51.384;0.040;2023-11-21T02:51:34;4.82;;;2.55;;
27706;SDS011;36332;51.384;0.040;2023-11-21T02:54:01;6.43;;;3.33;;
27706;SDS011;36332;51.384;0.040;2023-11-21T02:56:34;4.10;;;3.03;;
27706;SDS011;36332;51.384;0.040;2023-11-21T02:59:02;4.60;;;3.10;;
27706;SDS011;36332;51.384;0.040;2023-11-21T03:01:30;3.97;;;3.10;;
27706;SDS011;36332;51.384;0.040;2023-11-21T03:03:58;4.53;;;3.22;;
27706;SDS011;36332;51.384;0.040;2023-11-21T03:06:26;3.85;;;3.08;;
27706;SDS011;36332;51.384;0.040;2023-11-21T03:08:54;5.60;;;4.07;;
27706;SDS011;36332;51.384;0.040;2023-11-21T03:11:22;5.47;;;4.05;;
27706;SDS011;36332;51.384;0.040;2023-11-21T03:13:49;6.57;;;4.82;;
27706;SDS011;36332;51.384;0.040;2023-11-21T03:16:18;5.75;;;4.95;;
27706;SDS011;36332;51.384;0.040;2023-11-21T03:18:46;6.63;;;5.50;;
27706;SDS011;36332;51.384;0.040;2023-11-21T03:21:14;8.35;;;5.93;;
27706;SDS011;36332;51.384;0.040;2023-11-21T03:23:41;8.10;;;7.18;;
27706;SDS011;36332;51.384;0.040;2023-11-21T03:26:11;9.05;;;6.82;;
27706;SDS011;36332;51.384;0.040;2023-11-21T03:28:40;8.70;;;6.80;;
27706;SDS011;36332;51.384;0.040;2023-11-21T03:31:07;8.32;;;6.97;;
27706;SDS011;36332;51.384;0.040;2023-11-21T03:33:38;7.95;;;6.43;;
27706;SDS011;36332;51.384;0.040;2023-11-21T03:36:05;8.82;;;7.10;;
27706;SDS011;36332;51.384;0.040;2023-11-21T03:38:35;10.88;;;7.80;;
27706;SDS011;36332;51.384;0.040;2023-11-21T03:41:03;8.60;;;7.43;;
27706;SDS011;36332;51.384;0.040;2023-11-21T03:43:32;16.98;;;8.27;;
27706;SDS011;36332;51.384;0.040;2023-11-21T03:45:59;12.45;;;6.97;;
27706;SDS011;36332;51.384;0.040;2023-11-21T03:48:27;9.82;;;7.10;;
27706;SDS011;36332;51.384;0.040;2023-11-21T03:50:55;9.25;;;6.75;;
27706;SDS011;36332;51.384;0.040;2023-11-21T03:53:22;10.48;;;7.10;;
27706;SDS011;36332;51.384;0.040;2023-11-21T03:55:50;8.80;;;6.47;;
27706;SDS011;36332;51.384;0.040;2023-11-21T03:58:18;10.10;;;7.05;;
27706;SDS011;36332;51.384;0.040;2023-11-21T04:00:46;7.15;;;6.22;;
27706;SDS011;36332;51.384;0.040;2023-11-21T04:03:15;7.13;;;5.90;;
27706;SDS011;36332;51.384;0.040;2023-11-21T04:05:43;12.65;;;6.63;;
27706;SDS011;36332;51.384;0.040;2023-11-21T04:08:12;9.68;;;5.43;;
27706;SDS011;36332;51.384;0.040;2023-11-21T04:10:40;6.78;;;5.20;;
27706;SDS011;36332;51.384;0.040;2023-11-21T04:13:09;6.68;;;5.15;;
27706;SDS011;36332;51.384;0.040;2023-11-21T04:15:37;10.88;;;5.45;;
27706;SDS011;36332;51.384;0.040;2023-11-21T04:18:04;4.75;;;4.22;;
27706;SDS011;36332;51.384;0.040;2023-11-21T04:20:32;7.95;;;4.53;;
27706;SDS011;36332;51.384;0.040;2023-11-21T04:23:00;5.15;;;3.95;;
27706;SDS011;36332;51.384;0.040;2023-11-21T04:25:27;5.32;;;4.55;;
27706;SDS011;36332;51.384;0.040;2023-11-21T04:27:55;5.20;;;4.10;;
27706;SDS011;36332;51.384;0.040;2023-11-21T04:30:22;9.00;;;4.10;;
27706;SDS011;36332;51.384;0.040;2023-11-21T04:32:50;7.22;;;3.58;;
27706;SDS011;36332;51.384;0.040;2023-11-21T04:35:18;5.55;;;3.63;;
27706;SDS011;36332;51.384;0.040;2023-11-21T04:37:46;3.40;;;2.88;;
27706;SDS011;36332;51.384;0.040;2023-11-21T04:40:14;4.05;;;3.33;;
27706;SDS011;36332;51.384;0.040;2023-11-21T04:42:42;4.55;;;3.13;;
27706;SDS011;36332;51.384;0.040;2023-11-21T04:45:09;4.38;;;3.28;;
27706;SDS011;36332;51.384;0.040;2023-11-21T04:47:40;3.47;;;2.75;;
27706;SDS011;36332;51.384;0.040;2023-11-21T04:50:07;4.25;;;2.95;;
27706;SDS011;36332;51.384;0.040;2023-11-21T04:52:35;4.47;;;3.00;;
27706;SDS011;36332;51.384;0.040;2023-11-21T04:55:03;5.35;;;3.13;;
27706;SDS011;36332;51.384;0.040;2023-11-21T04:57:33;6.60;;;2.90;;
27706;SDS011;36332;51.384;0.040;2023-11-21T05:00:01;4.57;;;2.55;;
27706;SDS011;36332;51.384;0.040;2023-11-21T05:02:28;6.65;;;2.38;;
27706;SDS011;36332;51.384;0.040;2023-11-21T05:05:02;2.78;;;2.53;;
27706;SDS011;36332;51.384;0.040;2023-11-21T05:07:33;3.22;;;2.35;;
27706;SDS011;36332;51.384;0.040;2023-11-21T05:10:06;4.38;;;2.05;;
27706;SDS011;36332;51.384;0.040;2023-11-21T05:12:42;3.03;;;2.25;;
27706;SDS011;36332;51.384;0.040;2023-11-21T05:15:10;6.07;;;2.63;;
27706;SDS011;36332;51.384;0.040;2023-11-21T05:17:41;6.90;;;2.45;;
27706;SDS011;36332;51.384;0.040;2023-11-21T05:20:10;6.40;;;2.78;;
27706;SDS011;36332;51.384;0.040;2023-11-21T05:22:41;6.75;;;2.47;;
27706;SDS011;36332;51.384;0.040;2023-11-21T05:25:09;5.75;;;3.08;;
27706;SDS011;36332;51.384;0.040;2023-11-21T05:27:38;4.28;;;2.40;;
27706;SDS011;36332;51.384;0.040;2023-11-21T05:30:05;4.28;;;2.92;;
27706;SDS011;36332;51.384;0.040;2023-11-21T05:32:36;3.05;;;2.38;;
27706;SDS011;36332;51.384;0.040;2023-11-21T05:35:04;2.97;;;2.67;;
27706;SDS011;36332;51.384;0.040;2023-11-21T05:37:36;5.15;;;2.70;;
27706;SDS011;36332;51.384;0.040;2023-11-21T05:40:06;6.95;;;2.47;;
27706;SDS011;36332;51.384;0.040;2023-11-21T05:42:34;5.30;;;2.53;;
27706;SDS011;36332;51.384;0.040;2023-11-21T05:45:03;2.75;;;2.33;;
27706;SDS011;36332;51.384;0.040;2023-11-21T05:47:39;2.63;;;2.35;;
27706;SDS011;36332;51.384;0.040;2023-11-21T05:50:12;7.72;;;2.95;;
27706;SDS011;36332;51.384;0.040;2023-11-21T05:52:45;4.82;;;3.20;;
27706;SDS011;36332;51.384;0.040;2023-11-21T05:55:13;5.40;;;3.20;;
27706;SDS011;36332;51.384;0.040;2023-11-21T05:57:42;4.72;;;3.47;;
27706;SDS011;36332;51.384;0.040;2023-11-21T06:00:11;8.30;;;3.58;;
27706;SDS011;36332;51.384;0.040;2023-11-21T06:02:49;4.95;;;3.45;;
27706;SDS011;36332;51.384;0.040;2023-11-21T06:05:19;7.93;;;3.10;;
27706;SDS011;36332;51.384;0.040;2023-11-21T06:07:50;6.75;;;3.17;;
27706;SDS011;36332;51.384;0.040;2023-11-21T06:10:20;12.20;;;3.40;;
27706;SDS011;36332;51.384;0.040;2023-11-21T06:12:48;4.47;;;3.40;;
27706;SDS011;36332;51.384;0.040;2023-11-21T06:15:16;5.65;;;3.55;;
27706;SDS011;36332;51.384;0.040;2023-11-21T06:17:46;7.93;;;4.10;;
27706;SDS011;36332;51.384;0.040;2023-11-21T06:20:19;4.07;;;3.40;;
27706;SDS011;36332;51.384;0.040;2023-11-21T06:22:48;4.75;;;3.55;;
27706;SDS011;36332;51.384;0.040;2023-11-21T06:25:17;5.03;;;3.55;;
27706;SDS011;36332;51.384;0.040;2023-11-21T06:27:45;5.40;;;4.13;;
27706;SDS011;36332;51.384;0.040;2023-11-21T06:30:17;5.88;;;3.60;;
27706;SDS011;36332;51.384;0.040;2023-11-21T06:32:47;10.00;;;4.47;;
27706;SDS011;36332;51.384;0.040;2023-11-21T06:35:15;4.80;;;4.07;;
27706;SDS011;36332;51.384;0.040;2023-11-21T06:37:44;5.85;;;4.05;;
27706;SDS011;36332;51.384;0.040;2023-11-21T06:40:16;6.18;;;3.53;;
27706;SDS011;36332;51.384;0.040;2023-11-21T06:42:48;11.93;;;3.67;;
27706;SDS011;36332;51.384;0.040;2023-11-21T06:45:17;8.65;;;3.40;;
27706;SDS011;36332;51.384;0.040;2023-11-21T06:47:45;9.00;;;2.60;;
27706;SDS011;36332;51.384;0.040;2023-11-21T06:50:13;6.82;;;3.05;;
27706;SDS011;36332;51.384;0.040;2023-11-21T06:52:41;5.18;;;2.90;;
27706;SDS011;36332;51.384;0.040;2023-11-21T06:55:10;5.90;;;3.72;;
27706;SDS011;36332;51.384;0.040;2023-11-21T06:57:38;4.00;;;2.15;;
27706;SDS011;36332;51.384;0.040;2023-11-21T07:00:06;8.20;;;2.70;;
27706;SDS011;36332;51.384;0.040;2023-11-21T07:02:36;11.55;;;3.10;;
27706;SDS011;36332;51.384;0.040;2023-11-21T07:05:05;6.75;;;3.50;;
27706;SDS011;36332;51.384;0.040;2023-11-21T07:07:33;7.32;;;3.20;;
27706;SDS011;36332;51.384;0.040;2023-11-21T07:10:03;14.75;;;4.90;;
27706;SDS011;36332;51.384;0.040;2023-11-21T07:12:32;8.32;;;3.55;;
27706;SDS011;36332;51.384;0.040;2023-11-21T07:15:01;6.50;;;2.65;;
27706;SDS011;36332;51.384;0.040;2023-11-21T07:17:29;6.28;;;2.95;;
27706;SDS011;36332;51.384;0.040;2023-11-21T07:19:58;7.72;;;4.32;;
27706;SDS011;36332;51.384;0.040;2023-11-21T07:22:26;10.25;;;3.60;;
27706;SDS011;36332;51.384;0.040;2023-11-21T07:24:54;11.63;;;4.28;;
27706;SDS011;36332;51.384;0.040;2023-11-21T07:27:23;7.70;;;3.10;;
27706;SDS011;36332;51.384;0.040;2023-11-21T07:29:51;8.05;;;3.33;;
27706;SDS011;36332;51.384;0.040;2023-11-21T07:32:18;5.72;;;3.45;;
27706;SDS011;36332;51.384;0.040;2023-11-21T07:34:46;5.45;;;3.40;;
27706;SDS011;36332;51.384;0.040;2023-11-21T07:37:14;11.40;;;3.75;;
27706;SDS011;36332;51.384;0.040;2023-11-21T07:39:42;9.00;;;3.63;;
27706;SDS011;36332;51.384;0.040;2023-11-21T07:42:11;7.43;;;3.45;;
27706;SDS011;36332;51.384;0.040;2023-11-21T07:44:38;13.68;;;3.58;;
27706;SDS011;36332;51.384;0.040;2023-11-21T07:47:06;7.55;;;3.45;;
27706;SDS011;36332;51.384;0.040;2023-11-21T07:49:33;5.88;;;3.55;;
27706;SDS011;36332;51.384;0.040;2023-11-21T07:52:01;5.03;;;2.75;;
27706;SDS011;36332;51.384;0.040;2023-11-21T07:54:29;9.25;;;3.60;;
27706;SDS011;36332;51.384;0.040;2023-11-21T07:56:57;7.20;;;4.00;;
27706;SDS011;36332;51.384;0.040;2023-11-21T07:59:24;5.30;;;2.90;;
27706;SDS011;36332;51.384;0.040;2023-11-21T08:01:52;7.97;;;3.40;;
27706;SDS011;36332;51.384;0.040;2023-11-21T08:04:20;9.90;;;3.55;;
27706;SDS011;36332;51.384;0.040;2023-11-21T08:06:47;12.07;;;4.00;;
27706;SDS011;36332;51.384;0.040;2023-11-21T08:09:15;10.18;;;3.90;;
27706;SDS011;36332;51.384;0.040;2023-11-21T08:11:44;10.85;;;3.90;;
27706;SDS011;36332;51.384;0.040;2023-11-21T08:14:13;6.97;;;3.88;;
27706;SDS011;36332;51.384;0.040;2023-11-21T08:16:41;8.82;;;3.65;;
27706;SDS011;36332;51.384;0.040;2023-11-21T08:19:09;7.78;;;3.88;;
27706;SDS011;36332;51.384;0.040;2023-11-21T08:21:38;12.13;;;4.00;;
27706;SDS011;36332;51.384;0.040;2023-11-21T08:24:07;6.97;;;4.60;;
27706;SDS011;36332;51.384;0.040;2023-11-21T08:26:38;5.47;;;3.78;;
27706;SDS011;36332;51.384;0.040;2023-11-21T08:29:05;14.75;;;4.15;;
27706;SDS011;36332;51.384;0.040;2023-11-21T08:31:34;5.00;;;3.78;;
27706;SDS011;36332;51.384;0.040;2023-11-21T08:34:01;6.78;;;4.38;;
27706;SDS011;36332;51.384;0.040;2023-11-21T08:36:30;11.63;;;4.75;;
27706;SDS011;36332;51.384;0.040;2023-11-21T08:38:58;6.70;;;3.63;;
27706;SDS011;36332;51.384;0.040;2023-11-21T08:41:26;8.80;;;3.78;;
27706;SDS011;36332;51.384;0.040;2023-11-21T08:43:54;5.72;;;4.35;;
27706;SDS011;36332;51.384;0.040;2023-11-21T08:46:23;7.32;;;4.30;;
27706;SDS011;36332;51.384;0.040;2023-11-21T08:48:53;6.28;;;4.20;;
27706;SDS011;36332;51.384;0.040;2023-11-21T08:51:20;8.35;;;4.43;;
27706;SDS011;36332;51.384;0.040;2023-11-21T08:53:48;8.02;;;3.20;;
27706;SDS011;36332;51.384;0.040;2023-11-21T08:56:16;5.93;;;3.33;;
27706;SDS011;36332;51.384;0.040;2023-11-21T08:58:43;11.45;;;3.95;;
27706;SDS011;36332;51.384;0.040;2023-11-21T09:01:11;8.32;;;3.90;;
27706;SDS011;36332;51.384;0.040;2023-11-21T09:03:41;4.65;;;3.53;;
27706;SDS011;36332;51.384;0.040;2023-11-21T09:06:11;6.35;;;3.50;;
27706;SDS011;36332;51.384;0.040;2023-11-21T09:08:39;10.98;;;3.83;;
27706;SDS011;36332;51.384;0.040;2023-11-21T09:11:06;8.85;;;4.05;;
27706;SDS011;36332;51.384;0.040;2023-11-21T09:13:35;9.02;;;3.35;;
27706;SDS011;36332;51.384;0.040;2023-11-21T09:16:03;8.30;;;3.30;;
27706;SDS011;36332;51.384;0.040;2023-11-21T09:18:31;11.57;;;3.75;;
27706;SDS011;36332;51.384;0.040;2023-11-21T09:20:59;6.43;;;3.10;;
27706;SDS011;36332;51.384;0.040;2023-11-21T09:23:28;11.15;;;3.33;;
27706;SDS011;36332;51.384;0.040;2023-11-21T09:25:56;8.00;;;3.55;;
27706;SDS011;36332;51.384;0.040;2023-11-21T09:28:27;8.38;;;3.53;;
27706;SDS011;36332;51.384;0.040;2023-11-21T09:30:54;7.10;;;3.25;;
27706;SDS011;36332;51.384;0.040;2023-11-21T09:33:22;6.97;;;3.15;;
27706;SDS011;36332;51.384;0.040;2023-11-21T09:35:51;5.45;;;3.40;;
27706;SDS011;36332;51.384;0.040;2023-11-21T09:38:19;3.72;;;2.80;;
27706;SDS011;36332;51.384;0.040;2023-11-21T09:40:47;6.18;;;3.17;;
27706;SDS011;36332;51.384;0.040;2023-11-21T09:43:16;8.93;;;3.55;;
27706;SDS011;36332;51.384;0.040;2023-11-21T09:45:46;7.30;;;3.08;;
27706;SDS011;36332;51.384;0.040;2023-11-21T09:48:14;7.68;;;2.60;;
27706;SDS011;36332;51.384;0.040;2023-11-21T09:50:43;8.98;;;3.00;;
27706;SDS011;36332;51.384;0.040;2023-11-21T09:53:19;7.72;;;3.25;;
27706;SDS011;36332;51.384;0.040;2023-11-21T09:58:18;4.60;;;2.78;;
27706;SDS011;36332;51.384;0.040;2023-11-21T10:00:47;4.78;;;2.60;;
27706;SDS011;36332;51.384;0.040;2023-11-21T10:03:16;4.28;;;3.15;;
27706;SDS011;36332;51.384;0.040;2023-11-21T10:05:45;5.38;;;3.17;;
27706;SDS011;36332;51.384;0.040;2023-11-21T10:08:15;11.25;;;3.75;;
27706;SDS011;36332;51.384;0.040;2023-11-21T10:10:44;4.50;;;3.03;;
27706;SDS011;36332;51.384;0.040;2023-11-21T10:13:15;7.70;;;3.20;;
27706;SDS011;36332;51.384;0.040;2023-11-21T10:15:50;3.92;;;2.92;;
27706;SDS011;36332;51.384;0.040;2023-11-21T10:18:20;4.47;;;2.95;;
27706;SDS011;36332;51.384;0.040;2023-11-21T10:20:50;7.25;;;2.85;;
27706;SDS011;36332;51.384;0.040;2023-11-21T10:23:21;6.30;;;3.80;;
27706;SDS011;36332;51.384;0.040;2023-11-21T10:25:51;3.97;;;2.70;;
27706;SDS011;36332;51.384;0.040;2023-11-21T10:28:20;9.05;;;3.40;;
27706;SDS011;36332;51.384;0.040;2023-11-21T10:30:48;6.47;;;3.08;;
27706;SDS011;36332;51.384;0.040;2023-11-21T10:33:16;4.80;;;2.92;;
27706;SDS011;36332;51.384;0.040;2023-11-21T10:35:45;6.32;;;2.95;;
27706;SDS011;36332;51.384;0.040;2023-11-21T10:38:22;7.78;;;3.45;;
27706;SDS011;36332;51.384;0.040;2023-11-21T10:40:51;4.80;;;3.00;;
27706;SDS011;36332;51.384;0.040;2023-11-21T10:43:19;5.55;;;2.70;;
27706;SDS011;36332;51.384;0.040;2023-11-21T10:45:51;5.53;;;3.67;;
27706;SDS011;36332;51.384;0.040;2023-11-21T10:48:19;4.05;;;3.08;;
27706;SDS011;36332;51.384;0.040;2023-11-21T10:50:48;8.23;;;3.20;;
27706;SDS011;36332;51.384;0.040;2023-11-21T10:53:15;3.03;;;2.30;;
27706;SDS011;36332;51.384;0.040;2023-11-21T10:55:43;7.68;;;2.58;;
27706;SDS011;36332;51.384;0.040;2023-11-21T10:58:13;5.65;;;2.25;;
27706;SDS011;36332;51.384;0.040;2023-11-21T11:00:42;3.40;;;2.25;;
27706;SDS011;36332;51.384;0.040;2023-11-21T11:03:12;9.38;;;2.75;;
27706;SDS011;36332;51.384;0.040;2023-11-21T11:05:44;6.03;;;2.83;;
27706;SDS011;36332;51.384;0.040;2023-11-21T11:08:21;3.67;;;2.20;;
27706;SDS011;36332;51.384;0.040;2023-11-21T11:10:55;5.60;;;2.60;;
27706;SDS011;36332;51.384;0.040;2023-11-21T11:13:23;5.07;;;2.30;;
27706;SDS011;36332;51.384;0.040;2023-11-21T11:15:51;2.40;;;2.20;;
27706;SDS011;36332;51.384;0.040;2023-11-21T11:18:30;2.97;;;2.30;;
27706;SDS011;36332;51.384;0.040;2023-11-21T11:21:00;5.38;;;2.65;;
27706;SDS011;36332;51.384;0.040;2023-11-21T11:29:11;5.18;;;2.28;;
27706;SDS011;36332;51.384;0.040;2023-11-21T11:38:09;2.40;;;1.70;;
27706;SDS011;36332;51.384;0.040;2023-11-21T11:40:41;4.40;;;1.88;;
27706;SDS011;36332;51.384;0.040;2023-11-21T11:43:13;3.30;;;1.90;;
27706;SDS011;36332;51.384;0.040;2023-11-21T11:45:51;3.00;;;2.38;;
27706;SDS011;36332;51.384;0.040;2023-11-21T11:48:21;2.78;;;1.83;;
27706;SDS011;36332;51.384;0.040;2023-11-21T11:51:03;2.25;;;1.40;;
27706;SDS011;36332;51.384;0.040;2023-11-21T11:53:41;3.17;;;1.73;;
27706;SDS011;36332;51.384;0.040;2023-11-21T11:56:22;1.70;;;1.60;;
27706;SDS011;36332;51.384;0.040;2023-11-21T11:58:55;3.20;;;1.50;;
27706;SDS011;36332;51.384;0.040;2023-11-21T12:01:25;2.67;;;2.22;;
27706;SDS011;36332;51.384;0.040;2023-11-21T12:06:47;2.38;;;1.58;;
27706;SDS011;36332;51.384;0.040;2023-11-21T12:09:18;8.48;;;2.47;;
27706;SDS011;36332;51.384;0.040;2023-11-21T12:11:49;3.75;;;2.03;;
27706;SDS011;36332;51.384;0.040;2023-11-21T12:14:17;2.83;;;2.00;;
27706;SDS011;36332;51.384;0.040;2023-11-21T12:16:45;4.72;;;2.67;;
27706;SDS011;36332;51.384;0.040;2023-11-21T12:19:13;2.80;;;2.53;;
27706;SDS011;36332;51.384;0.040;2023-11-21T12:21:40;4.03;;;3.25;;
27706;SDS011;36332;51.384;0.040;2023-11-21T12:24:09;4.82;;;3.58;;
27706;SDS011;36332;51.384;0.040;2023-11-21T12:26:36;4.45;;;3.00;;
27706;SDS011;36332;51.384;0.040;2023-11-21T12:29:04;5.10;;;3.33;;
27706;SDS011;36332;51.384;0.040;2023-11-21T12:31:34;3.22;;;2.70;;
27706;SDS011;36332;51.384;0.040;2023-11-21T12:34:03;6.38;;;3.22;;
27706;SDS011;36332;51.384;0.040;2023-11-21T12:36:34;6.78;;;3.63;;
27706;SDS011;36332;51.384;0.040;2023-11-21T12:39:02;4.15;;;3.00;;
27706;SDS011;36332;51.384;0.040;2023-11-21T12:41:30;3.35;;;2.45;;
27706;SDS011;36332;51.384;0.040;2023-11-21T12:43:58;5.88;;;2.67;;
27706;SDS011;36332;51.384;0.040;2023-11-21T12:46:26;2.50;;;2.30;;
27706;SDS011;36332;51.384;0.040;2023-11-21T12:48:56;4.55;;;2.40;;
27706;SDS011;36332;51.384;0.040;2023-11-21T12:51:25;4.63;;;2.65;;
27706;SDS011;36332;51.384;0.040;2023-11-21T12:53:52;3.97;;;2.70;;
27706;SDS011;36332;51.384;0.040;2023-11-21T12:56:21;4.88;;;3.38;;
27706;SDS011;36332;51.384;0.040;2023-11-21T12:58:50;2.80;;;2.60;;
27706;SDS011;36332;51.384;0.040;2023-11-21T13:01:21;4.03;;;2.97;;
27706;SDS011;36332;51.384;0.040;2023-11-21T13:03:56;5.38;;;2.20;;
27706;SDS011;36332;51.384;0.040;2023-11-21T13:06:29;4.82;;;2.30;;
27706;SDS011;36332;51.384;0.040;2023-11-21T13:09:01;4.72;;;3.17;;
27706;SDS011;36332;51.384;0.040;2023-11-21T13:11:34;3.17;;;2.67;;
27706;SDS011;36332;51.384;0.040;2023-11-21T13:14:03;7.38;;;3.63;;
27706;SDS011;36332;51.384;0.040;2023-11-21T13:16:31;3.85;;;2.90;;
27706;SDS011;36332;51.384;0.040;2023-11-21T13:18:59;3.42;;;3.00;;
27706;SDS011;36332;51.384;0.040;2023-11-21T13:21:26;6.65;;;3.40;;
27706;SDS011;36332;51.384;0.040;2023-11-21T13:23:54;3.88;;;2.92;;
27706;SDS011;36332;51.384;0.040;2023-11-21T13:26:22;5.10;;;3.15;;
27706;SDS011;36332;51.384;0.040;2023-11-21T13:28:52;4.60;;;3.13;;
27706;SDS011;36332;51.384;0.040;2023-11-21T13:31:20;3.00;;;2.40;;
27706;SDS011;36332;51.384;0.040;2023-11-21T13:33:50;6.30;;;2.35;;
27706;SDS011;36332;51.384;0.040;2023-11-21T13:36:26;4.63;;;2.47;;
27706;SDS011;36332;51.384;0.040;2023-11-21T13:38:58;4.53;;;2.70;;
27706;SDS011;36332;51.384;0.040;2023-11-21T13:41:31;4.88;;;3.33;;
27706;SDS011;36332;51.384;0.040;2023-11-21T13:43:59;5.03;;;3.92;;
27706;SDS011;36332;51.384;0.040;2023-11-21T13:46:44;6.65;;;4.13;;
27706;SDS011;36332;51.384;0.040;2023-11-21T13:49:13;6.50;;;5.60;;
27706;SDS011;36332;51.384;0.040;2023-11-21T13:51:42;5.43;;;3.80;;
27706;SDS011;36332;51.384;0.040;2023-11-21T13:54:13;5.63;;;3.10;;
27706;SDS011;36332;51.384;0.040;2023-11-21T13:56:41;4.45;;;2.60;;
27706;SDS011;36332;51.384;0.040;2023-11-21T13:59:12;2.55;;;1.92;;
27706;SDS011;36332;51.384;0.040;2023-11-21T14:01:52;2.42;;;1.45;;
27706;SDS011;36332;51.384;0.040;2023-11-21T14:04:21;2.58;;;1.63;;
27706;SDS011;36332;51.384;0.040;2023-11-21T14:06:58;2.83;;;1.65;;
27706;SDS011;36332;51.384;0.040;2023-11-21T14:09:28;8.10;;;1.55;;
27706;SDS011;36332;51.384;0.040;2023-11-21T14:12:10;4.35;;;1.35;;
27706;SDS011;36332;51.384;0.040;2023-11-21T14:14:41;3.97;;;1.40;;
27706;SDS011;36332;51.384;0.040;2023-11-21T14:17:10;2.67;;;1.10;;
27706;SDS011;36332;51.384;0.040;2023-11-21T14:19:38;7.43;;;1.70;;
27706;SDS011;36332;51.384;0.040;2023-11-21T14:22:10;3.28;;;1.75;;
27706;SDS011;36332;51.384;0.040;2023-11-21T14:24:39;5.28;;;1.77;;
27706;SDS011;36332;51.384;0.040;2023-11-21T14:27:14;2.95;;;1.38;;
27706;SDS011;36332;51.384;0.040;2023-11-21T14:29:42;10.77;;;1.58;;
27706;SDS011;36332;51.384;0.040;2023-11-21T14:32:12;8.63;;;1.98;;
27706;SDS011;36332;51.384;0.040;2023-11-21T14:34:41;7.00;;;3.00;;
27706;SDS011;36332;51.384;0.040;2023-11-21T14:37:13;6.70;;;2.03;;
27706;SDS011;36332;51.384;0.040;2023-11-21T14:39:41;9.18;;;2.22;;
27706;SDS011;36332;51.384;0.040;2023-11-21T14:42:13;9.95;;;2.25;;
27706;SDS011;36332;51.384;0.040;2023-11-21T14:44:42;7.20;;;1.75;;
27706;SDS011;36332;51.384;0.040;2023-11-21T14:47:10;7.32;;;1.85;;
27706;SDS011;36332;51.384;0.040;2023-11-21T14:49:43;12.38;;;2.45;;
27706;SDS011;36332;51.384;0.040;2023-11-21T14:55:02;8.20;;;1.80;;
27706;SDS011;36332;51.384;0.040;2023-11-21T14:57:48;10.52;;;2.03;;
27706;SDS011;36332;51.384;0.040;2023-11-21T15:00:18;11.63;;;3.58;;
27706;SDS011;36332;51.384;0.040;2023-11-21T15:02:59;11.40;;;3.50;;
27706;SDS011;36332;51.384;0.040;2023-11-21T15:05:27;14.00;;;4.22;;
27706;SDS011;36332;51.384;0.040;2023-11-21T15:07:56;11.57;;;3.97;;
27706;SDS011;36332;51.384;0.040;2023-11-21T15:10:40;18.15;;;3.28;;
27706;SDS011;36332;51.384;0.040;2023-11-21T15:13:19;11.13;;;2.38;;
27706;SDS011;36332;51.384;0.040;2023-11-21T15:15:49;10.00;;;2.47;;